Terminal Aerodrome Forecast
Issued by NWS Wilmington, NC

Home | Current Version | Previous Version | Text Only | Print | Product List | Glossary On
Versions: 1 2 3 4 5 6 7 8 9 10 11 12 13
000
FTUS42 KILM 240500
TAFILM
TAF
KILM 240536Z 2406/2506 01006KT P6SM SKC
     FM240800 05005KT P6SM SKC
     FM241800 14008KT P6SM SKC
     FM250200 VRB02KT P6SM SKC=

USA.gov is the U.S. government's official web portal to all federal, state and local government web resources and services.